Time;durP1;ratioP1;P1;durP2;ratioP2;P2;SDS_P1;SDS_P2;PMS_P1;PMS_P2;Temp;Humidity;BMP_temperature;BMP_pressure;BME280_temperature;BME280_humidity;BME280_pressure;Samples;Min_cycle;Max_cycle;Signal;HPM_P1;HPM_P2
2024/01/14 00:00:08;;;;;;;8.77;1.58;;;3.10;1.00;;;;;;5039050;28;20049;-69
2024/01/14 00:02:34;;;;;;;12.55;2.25;;;3.10;1.00;;;;;;5031456;28;20073;-68
2024/01/14 00:05:00;;;;;;;9.65;2.00;;;3.10;1.00;;;;;;5045761;28;20124;-70
2024/01/14 00:07:25;;;;;;;11.65;3.58;;;3.10;1.00;;;;;;5026819;28;20124;-71
2024/01/14 00:09:51;;;;;;;13.55;2.45;;;3.10;1.00;;;;;;5019505;28;20427;-67
2024/01/14 00:12:16;;;;;;;14.02;2.33;;;3.10;6.30;;;;;;5037368;28;20619;-71
2024/01/14 00:14:42;;;;;;;9.02;1.80;;;3.10;21.20;;;;;;5036864;28;20040;-69
2024/01/14 00:17:08;;;;;;;10.10;1.58;;;3.20;26.20;;;;;;5031893;28;20123;-68
2024/01/14 00:19:33;;;;;;;7.82;1.67;;;3.20;1.00;;;;;;5033935;28;20041;-69
2024/01/14 00:21:59;;;;;;;15.57;3.30;;;3.20;1.00;;;;;;5029024;28;20389;-71
2024/01/14 00:24:25;;;;;;;10.48;2.03;;;3.20;1.00;;;;;;5028675;28;20045;-70
2024/01/14 00:26:50;;;;;;;10.05;1.50;;;3.20;1.00;;;;;;5013965;28;20549;-69
2024/01/14 00:29:16;;;;;;;6.63;1.50;;;3.30;1.00;;;;;;5046851;28;20684;-70
2024/01/14 00:31:41;;;;;;;13.30;2.22;;;3.30;1.00;;;;;;5032313;28;20163;-70
2024/01/14 00:34:07;;;;;;;14.82;2.10;;;3.30;1.00;;;;;;5034047;28;20095;-74
2024/01/14 00:36:41;;;;;;;18.83;2.58;;;3.40;1.00;;;;;;5038651;28;20187;-71
2024/01/14 00:39:07;;;;;;;11.20;2.88;;;3.40;1.00;;;;;;5036595;28;20041;-70
2024/01/14 00:41:33;;;;;;;13.38;1.95;;;3.50;1.00;;;;;;5017102;28;20119;-69
2024/01/14 00:44:00;;;;;;;14.50;2.08;;;3.50;1.00;;;;;;5031249;28;20060;-69
2024/01/14 00:46:26;;;;;;;8.48;2.05;;;3.50;1.00;;;;;;5033705;28;20059;-72
2024/01/14 00:48:52;;;;;;;15.15;2.47;;;3.50;1.00;;;;;;5033315;28;20045;-72
2024/01/14 00:51:17;;;;;;;11.07;2.33;;;3.40;99.90;;;;;;5033579;28;20120;-69
2024/01/14 00:53:43;;;;;;;20.08;2.33;;;3.40;1.00;;;;;;5033197;28;20033;-69
2024/01/14 00:56:08;;;;;;;10.43;2.08;;;3.40;1.00;;;;;;5037817;28;20074;-67
2024/01/14 00:58:34;;;;;;;18.02;2.08;;;3.50;1.00;;;;;;5028037;28;20056;-71
2024/01/14 01:01:00;;;;;;;23.17;4.63;;;3.40;1.00;;;;;;5015519;28;20074;-69
2024/01/14 01:03:25;;;;;;;16.10;2.80;;;3.40;1.00;;;;;;5034092;28;20041;-70
2024/01/14 01:05:54;;;;;;;13.30;1.83;;;3.50;1.00;;;;;;5040314;28;20080;-69
2024/01/14 01:08:19;;;;;;;17.77;3.05;;;3.50;1.00;;;;;;5025335;28;20049;-68
2024/01/14 01:10:45;;;;;;;10.18;1.45;;;3.50;21.60;;;;;;5019988;28;23288;-68
2024/01/14 01:13:11;;;;;;;11.77;1.80;;;3.50;57.10;;;;;;5013309;28;20325;-69
2024/01/14 01:15:37;;;;;;;15.90;1.83;;;3.60;93.10;;;;;;5037814;28;20112;-68
2024/01/14 01:18:02;;;;;;;10.13;1.80;;;3.60;99.90;;;;;;5031968;28;20680;-68
2024/01/14 01:20:28;;;;;;;8.65;1.58;;;3.60;99.90;;;;;;5032145;28;20167;-69
2024/01/14 01:22:54;;;;;;;12.30;1.45;;;3.50;99.90;;;;;;5040345;28;20330;-68
2024/01/14 01:25:19;;;;;;;10.27;1.42;;;3.50;99.90;;;;;;5040413;28;20050;-69
2024/01/14 01:27:45;;;;;;;11.88;1.70;;;3.50;99.90;;;;;;5035474;28;20084;-69
2024/01/14 01:30:11;;;;;;;11.73;1.55;;;3.60;99.90;;;;;;5037355;28;20041;-69
2024/01/14 01:32:36;;;;;;;10.93;1.60;;;3.50;99.90;;;;;;5033323;28;20500;-69
2024/01/14 01:35:02;;;;;;;9.10;1.33;;;3.50;99.90;;;;;;5019286;28;20486;-68
2024/01/14 01:37:28;;;;;;;7.03;1.20;;;3.40;99.90;;;;;;5032898;28;20041;-69
2024/01/14 01:39:53;;;;;;;10.52;1.67;;;3.50;99.90;;;;;;5027965;28;20129;-69
2024/01/14 01:42:20;;;;;;;12.75;2.05;;;3.50;99.90;;;;;;5030613;28;20507;-68
2024/01/14 01:44:46;;;;;;;10.30;1.45;;;3.50;99.90;;;;;;5028385;28;20072;-68
2024/01/14 01:47:12;;;;;;;13.02;2.33;;;3.50;99.90;;;;;;5034677;28;20072;-69
2024/01/14 01:49:38;;;;;;;11.05;1.40;;;3.50;99.90;;;;;;5034642;28;20045;-69
2024/01/14 01:52:06;;;;;;;9.60;1.55;;;3.50;99.90;;;;;;5032129;28;20033;-70
2024/01/14 01:54:33;;;;;;;13.25;1.95;;;3.50;99.90;;;;;;5037356;28;20048;-70
2024/01/14 01:56:59;;;;;;;9.20;1.25;;;3.50;99.90;;;;;;5041892;28;20040;-69
2024/01/14 01:59:26;;;;;;;7.72;1.10;;;3.60;99.90;;;;;;5039523;28;20057;-69
2024/01/14 02:01:52;;;;;;;11.23;1.42;;;3.50;99.90;;;;;;5034914;28;20037;-70
2024/01/14 02:04:19;;;;;;;15.68;1.77;;;3.60;99.90;;;;;;5038020;28;20124;-70
2024/01/14 02:06:44;;;;;;;7.72;1.23;;;3.50;99.90;;;;;;5041445;28;20064;-68
2024/01/14 02:09:10;;;;;;;6.20;1.35;;;3.40;99.90;;;;;;5030399;28;20107;-71
2024/01/14 02:11:37;;;;;;;6.30;1.58;;;3.40;99.90;;;;;;5045737;28;20037;-71
2024/01/14 02:14:03;;;;;;;11.35;1.55;;;3.30;99.90;;;;;;5040459;28;20060;-70
2024/01/14 02:16:29;;;;;;;5.50;1.20;;;3.20;99.90;;;;;;5030789;28;20044;-68
2024/01/14 02:18:55;;;;;;;5.60;1.10;;;3.20;99.90;;;;;;5034542;28;20405;-69
2024/01/14 02:21:23;;;;;;;19.85;1.90;;;3.10;99.90;;;;;;5040197;28;20049;-69
2024/01/14 02:24:23;;;;;;;8.15;1.00;;;3.10;99.90;;;;;;5037404;28;20048;-69
2024/01/14 02:26:49;;;;;;;4.70;0.93;;;2.90;99.90;;;;;;5042614;28;20049;-70
2024/01/14 02:29:15;;;;;;;6.03;1.10;;;2.90;99.90;;;;;;5045015;28;20040;-70
2024/01/14 02:31:41;;;;;;;6.55;1.13;;;3.00;99.90;;;;;;5042775;28;20057;-71
2024/01/14 02:34:09;;;;;;;10.85;1.35;;;2.90;99.90;;;;;;5033684;28;20540;-70
2024/01/14 02:36:35;;;;;;;13.45;2.20;;;2.90;99.90;;;;;;5033974;28;20037;-70
2024/01/14 02:39:00;;;;;;;10.95;1.23;;;2.90;99.90;;;;;;5016661;28;20124;-70
2024/01/14 02:41:26;;;;;;;10.15;1.40;;;2.80;99.90;;;;;;5043280;28;20037;-68
2024/01/14 02:43:51;;;;;;;7.88;1.30;;;2.80;99.90;;;;;;5050976;28;20095;-71
2024/01/14 02:46:17;;;;;;;10.32;1.23;;;2.80;99.90;;;;;;5033963;28;20777;-71
2024/01/14 02:48:43;;;;;;;6.50;1.23;;;2.80;99.90;;;;;;5031783;28;20075;-70
2024/01/14 02:51:08;;;;;;;7.95;1.52;;;2.80;99.90;;;;;;5037759;28;20128;-72
2024/01/14 02:53:34;;;;;;;7.43;1.10;;;2.80;99.90;;;;;;5037653;28;20488;-70
2024/01/14 02:55:59;;;;;;;5.07;0.77;;;2.70;99.90;;;;;;5043116;28;20045;-70
2024/01/14 02:58:25;;;;;;;4.70;1.10;;;2.70;99.90;;;;;;5044642;28;20120;-70
2024/01/14 03:00:50;;;;;;;6.97;1.10;;;2.70;99.90;;;;;;5039492;28;20406;-70
2024/01/14 03:03:16;;;;;;;5.28;1.90;;;2.60;99.90;;;;;;5047382;28;20036;-70
2024/01/14 03:05:42;;;;;;;7.00;1.50;;;2.60;99.90;;;;;;5040140;28;20037;-71
2024/01/14 03:08:08;;;;;;;10.27;1.25;;;2.70;99.90;;;;;;5020124;28;20094;-69
2024/01/14 03:10:34;;;;;;;11.15;1.50;;;2.70;99.90;;;;;;5046336;28;20048;-69
2024/01/14 03:13:00;;;;;;;6.72;1.20;;;2.80;99.90;;;;;;5024115;28;20033;-71
2024/01/14 03:15:25;;;;;;;7.63;1.38;;;2.80;99.90;;;;;;5041733;28;20457;-71
2024/01/14 03:17:52;;;;;;;10.43;1.35;;;2.90;99.90;;;;;;5043211;28;20067;-70
2024/01/14 03:20:17;;;;;;;8.60;1.27;;;2.90;99.90;;;;;;5038756;28;20815;-69
2024/01/14 03:22:43;;;;;;;8.45;1.77;;;2.90;99.90;;;;;;5043763;28;20045;-69
2024/01/14 03:25:09;;;;;;;10.45;1.58;;;2.90;99.90;;;;;;5039777;28;20033;-71
2024/01/14 03:27:34;;;;;;;9.15;1.58;;;2.90;99.90;;;;;;5041368;28;20029;-68
2024/01/14 03:30:00;;;;;;;9.35;1.50;;;2.80;99.90;;;;;;5014350;28;20088;-68
2024/01/14 03:32:26;;;;;;;10.68;1.65;;;2.80;99.90;;;;;;5029258;28;20466;-67
2024/01/14 03:34:51;;;;;;;11.15;1.60;;;2.70;99.90;;;;;;5024217;28;20171;-69
2024/01/14 03:37:17;;;;;;;9.30;3.00;;;2.70;99.90;;;;;;5037015;28;20037;-69
2024/01/14 03:39:42;;;;;;;11.70;1.70;;;2.70;99.90;;;;;;5028722;28;20040;-71
2024/01/14 03:42:08;;;;;;;6.80;1.17;;;2.60;99.90;;;;;;5043736;28;20596;-70
2024/01/14 03:44:33;;;;;;;14.77;1.50;;;2.60;99.90;;;;;;5030869;28;20037;-70
2024/01/14 03:46:59;;;;;;;8.65;1.30;;;2.50;99.90;;;;;;5031357;28;21743;-70
2024/01/14 03:49:25;;;;;;;13.43;1.92;;;2.60;99.90;;;;;;5024256;28;20437;-70
2024/01/14 03:51:50;;;;;;;9.75;1.40;;;2.50;99.90;;;;;;5033134;28;20044;-70
2024/01/14 03:54:16;;;;;;;8.65;1.55;;;2.50;99.90;;;;;;5039583;28;22813;-70
2024/01/14 03:56:41;;;;;;;9.63;1.33;;;2.60;99.90;;;;;;5032661;28;20044;-70
2024/01/14 03:59:07;;;;;;;9.63;1.77;;;2.60;99.90;;;;;;5031537;28;20082;-70
2024/01/14 04:01:33;;;;;;;10.85;1.35;;;2.60;99.90;;;;;;5037378;28;20041;-71
2024/01/14 04:03:58;;;;;;;9.25;2.00;;;2.70;99.90;;;;;;5037203;28;20473;-70
2024/01/14 04:06:24;;;;;;;12.27;1.33;;;2.70;99.90;;;;;;5031175;28;20045;-70
2024/01/14 04:08:49;;;;;;;16.55;1.77;;;2.60;99.90;;;;;;5021205;28;20135;-69
2024/01/14 04:11:15;;;;;;;15.50;2.00;;;2.60;99.90;;;;;;5041300;28;20025;-71
2024/01/14 04:13:41;;;;;;;14.30;2.22;;;2.60;99.90;;;;;;5035709;28;20111;-70
2024/01/14 04:16:09;;;;;;;9.55;2.88;;;2.50;99.90;;;;;;5029800;28;20065;-70
2024/01/14 04:18:35;;;;;;;11.30;2.63;;;2.40;99.90;;;;;;5022281;28;20035;-68
2024/01/14 04:21:01;;;;;;;10.45;1.60;;;2.30;99.90;;;;;;5034127;28;20041;-69
2024/01/14 04:23:26;;;;;;;12.98;1.80;;;2.30;99.90;;;;;;5042073;28;20068;-70
2024/01/14 04:25:52;;;;;;;10.55;1.48;;;2.30;99.90;;;;;;5036247;28;20053;-70
2024/01/14 04:28:18;;;;;;;14.75;1.50;;;2.20;99.90;;;;;;5035867;28;20044;-69
2024/01/14 04:30:43;;;;;;;8.10;1.20;;;2.20;99.90;;;;;;5032898;28;20143;-69
2024/01/14 04:33:09;;;;;;;9.30;1.30;;;2.20;99.90;;;;;;5035196;28;20037;-69
2024/01/14 04:35:35;;;;;;;12.02;1.38;;;2.10;99.90;;;;;;5034073;28;20065;-70
2024/01/14 04:38:00;;;;;;;14.10;1.73;;;2.10;99.90;;;;;;5032008;28;20091;-69
2024/01/14 04:40:26;;;;;;;12.50;1.70;;;2.10;99.90;;;;;;5034865;28;20152;-73
2024/01/14 04:42:52;;;;;;;16.65;2.55;;;2.00;99.90;;;;;;5030780;28;20535;-68
2024/01/14 04:45:18;;;;;;;9.82;2.50;;;2.00;99.90;;;;;;5029578;28;20048;-69
2024/01/14 04:47:43;;;;;;;14.23;1.70;;;2.00;99.90;;;;;;5039361;28;20032;-68
2024/01/14 04:50:10;;;;;;;9.35;1.50;;;1.90;99.90;;;;;;5017015;28;20037;-70
2024/01/14 04:52:35;;;;;;;12.60;1.55;;;2.00;99.90;;;;;;5042602;28;20037;-70
2024/01/14 04:55:01;;;;;;;6.35;1.38;;;2.00;99.90;;;;;;5033861;28;20071;-70
2024/01/14 04:57:27;;;;;;;11.50;2.13;;;2.00;99.90;;;;;;5038357;28;20041;-70
2024/01/14 04:59:52;;;;;;;23.02;2.13;;;2.00;99.90;;;;;;5040395;28;20519;-70
2024/01/14 05:02:18;;;;;;;4.97;1.80;;;2.00;99.90;;;;;;5043249;28;20033;-71
2024/01/14 05:04:43;;;;;;;13.70;1.52;;;2.00;99.90;;;;;;5043042;28;20477;-71
2024/01/14 05:07:10;;;;;;;11.82;1.80;;;2.00;99.90;;;;;;5032079;28;20050;-69
2024/01/14 05:09:36;;;;;;;11.13;1.45;;;2.00;99.90;;;;;;5029878;28;20040;-71
2024/01/14 05:12:01;;;;;;;11.73;1.60;;;1.90;99.90;;;;;;5022176;28;20049;-70
2024/01/14 05:14:27;;;;;;;13.30;1.52;;;1.90;99.90;;;;;;5030197;28;20076;-70
2024/01/14 05:16:53;;;;;;;12.57;1.77;;;1.90;99.90;;;;;;5031285;28;20037;-70
2024/01/14 05:19:18;;;;;;;13.88;1.73;;;1.90;99.90;;;;;;5034893;28;20041;-70
2024/01/14 05:21:44;;;;;;;13.93;2.03;;;1.90;99.90;;;;;;5021671;28;20515;-69
2024/01/14 05:24:09;;;;;;;9.77;1.60;;;1.90;99.90;;;;;;5041170;28;20045;-70
2024/01/14 05:26:40;;;;;;;10.95;1.80;;;1.90;99.90;;;;;;5044971;28;20038;-71
2024/01/14 05:29:06;;;;;;;9.45;1.65;;;1.90;99.90;;;;;;5040805;28;20037;-69
2024/01/14 05:31:31;;;;;;;8.35;1.77;;;1.90;99.90;;;;;;5037111;28;20057;-68
2024/01/14 05:33:57;;;;;;;10.20;1.27;;;1.80;99.90;;;;;;5041424;28;20029;-70
2024/01/14 05:36:22;;;;;;;18.05;1.50;;;1.90;99.90;;;;;;5041484;28;20731;-69
2024/01/14 05:38:48;;;;;;;10.95;1.60;;;1.90;99.90;;;;;;5036160;28;20037;-70
2024/01/14 05:41:14;;;;;;;14.38;1.98;;;1.80;99.90;;;;;;5040326;28;20251;-69
2024/01/14 05:43:39;;;;;;;12.90;1.95;;;1.80;99.90;;;;;;5041177;28;20044;-69
2024/01/14 05:46:05;;;;;;;16.08;2.20;;;1.90;99.90;;;;;;5035754;28;20048;-69
2024/01/14 05:48:31;;;;;;;10.30;1.92;;;1.80;99.90;;;;;;5032501;28;20044;-70
2024/01/14 05:50:57;;;;;;;14.65;2.85;;;1.80;99.90;;;;;;5040456;28;20033;-69
2024/01/14 05:53:22;;;;;;;13.65;2.05;;;1.90;99.90;;;;;;5037179;28;20040;-70
2024/01/14 05:55:48;;;;;;;11.95;1.80;;;1.90;99.90;;;;;;5046237;28;20034;-70
2024/01/14 05:58:13;;;;;;;22.13;2.20;;;1.90;99.90;;;;;;5034349;28;20041;-70
2024/01/14 06:00:39;;;;;;;16.48;2.60;;;1.90;99.90;;;;;;5043076;28;20035;-69
2024/01/14 06:03:05;;;;;;;8.68;1.50;;;2.00;99.90;;;;;;5040239;28;20058;-70
2024/01/14 06:05:30;;;;;;;9.48;1.63;;;2.00;99.90;;;;;;5047137;28;20386;-69
2024/01/14 06:07:56;;;;;;;10.98;1.83;;;2.10;99.90;;;;;;5039763;28;20037;-69
2024/01/14 06:10:21;;;;;;;15.63;1.70;;;2.10;99.90;;;;;;5036089;28;20094;-70
2024/01/14 06:12:47;;;;;;;13.18;1.90;;;2.10;99.90;;;;;;5038720;28;20072;-72
2024/01/14 06:15:13;;;;;;;11.00;1.92;;;2.00;99.90;;;;;;5035720;28;20065;-70
2024/01/14 06:17:38;;;;;;;15.80;2.15;;;2.00;99.90;;;;;;5036943;28;20124;-68
2024/01/14 06:20:04;;;;;;;13.27;1.60;;;2.00;99.90;;;;;;5039122;28;20056;-68
2024/01/14 06:22:30;;;;;;;12.80;2.13;;;2.00;99.90;;;;;;5034232;28;20041;-68
2024/01/14 06:24:56;;;;;;;9.20;1.98;;;2.00;99.90;;;;;;5041348;28;20025;-68
2024/01/14 06:27:21;;;;;;;13.70;1.75;;;2.10;99.90;;;;;;5037561;28;20099;-70
2024/01/14 06:29:47;;;;;;;14.32;2.17;;;2.10;99.90;;;;;;5025781;28;20052;-69
2024/01/14 06:32:12;;;;;;;11.75;1.65;;;2.00;99.90;;;;;;5046119;28;20045;-69
2024/01/14 06:34:40;;;;;;;10.07;1.73;;;2.00;99.90;;;;;;5042283;28;20470;-69
2024/01/14 06:37:06;;;;;;;6.72;1.50;;;2.10;99.90;;;;;;5042464;28;20040;-68
2024/01/14 06:39:31;;;;;;;16.00;1.67;;;2.00;99.90;;;;;;5032951;28;20033;-70
2024/01/14 06:41:57;;;;;;;11.48;1.60;;;2.10;99.90;;;;;;5042781;28;20102;-70
2024/01/14 06:44:22;;;;;;;10.25;1.73;;;2.10;99.90;;;;;;5039960;28;20041;-70
2024/01/14 06:46:48;;;;;;;7.20;1.40;;;2.10;99.90;;;;;;5038060;28;20045;-70
2024/01/14 06:49:14;;;;;;;10.48;1.35;;;2.20;99.90;;;;;;5038830;28;20041;-70
2024/01/14 06:51:46;;;;;;;9.77;2.00;;;2.20;99.90;;;;;;5035544;28;20099;-69
2024/01/14 06:54:12;;;;;;;7.93;1.38;;;2.20;99.90;;;;;;5040276;28;20476;-70
2024/01/14 06:56:45;;;;;;;10.82;1.60;;;2.30;99.90;;;;;;5020140;28;20381;-70
2024/01/14 06:59:24;;;;;;;8.43;1.73;;;2.30;99.90;;;;;;5031693;28;20454;-69
2024/01/14 07:01:50;;;;;;;10.07;1.43;;;2.30;99.90;;;;;;5033774;28;20056;-70
2024/01/14 07:04:16;;;;;;;5.95;1.30;;;2.30;99.90;;;;;;5035424;28;20284;-69
2024/01/14 07:06:42;;;;;;;11.20;1.58;;;2.30;99.90;;;;;;5034196;28;20075;-70
2024/01/14 07:09:12;;;;;;;7.22;1.40;;;2.30;99.90;;;;;;5034082;28;20110;-70
2024/01/14 07:11:38;;;;;;;7.07;1.50;;;2.30;99.90;;;;;;5038251;28;20048;-69
2024/01/14 07:14:03;;;;;;;6.00;1.40;;;2.20;99.90;;;;;;5042212;28;20037;-71
2024/01/14 07:16:30;;;;;;;10.40;1.48;;;2.30;99.90;;;;;;5019506;28;20381;-71
2024/01/14 07:18:56;;;;;;;6.35;1.35;;;2.30;99.90;;;;;;5031979;28;20048;-68
2024/01/14 07:21:23;;;;;;;17.92;3.28;;;2.30;99.90;;;;;;5032172;28;20048;-68
2024/01/14 07:23:49;;;;;;;8.98;1.58;;;2.30;99.90;;;;;;5037482;28;20515;-69
2024/01/14 07:26:16;;;;;;;7.20;1.30;;;2.20;99.90;;;;;;5031420;28;20037;-69
2024/01/14 07:28:42;;;;;;;9.48;1.52;;;2.20;99.90;;;;;;5046101;28;20131;-69
2024/01/14 07:31:07;;;;;;;8.48;1.40;;;2.10;99.90;;;;;;5036280;28;20145;-70
2024/01/14 07:33:33;;;;;;;12.15;1.70;;;2.00;99.90;;;;;;5027238;28;20042;-69
2024/01/14 07:35:59;;;;;;;11.98;1.75;;;2.10;99.90;;;;;;5040710;28;20044;-71
2024/01/14 07:38:24;;;;;;;10.43;1.40;;;2.20;99.90;;;;;;5035195;28;20393;-69
2024/01/14 07:40:50;;;;;;;12.40;2.42;;;2.10;99.90;;;;;;5040297;28;20041;-69
2024/01/14 07:43:15;;;;;;;7.43;1.40;;;2.10;99.90;;;;;;5035154;28;20227;-69
2024/01/14 07:45:41;;;;;;;10.10;1.50;;;2.20;99.90;;;;;;5031273;28;20048;-71
2024/01/14 07:48:07;;;;;;;7.13;1.42;;;2.30;99.90;;;;;;5033538;28;20365;-69
2024/01/14 07:50:32;;;;;;;8.30;1.40;;;2.30;99.90;;;;;;5035459;28;20373;-71
2024/01/14 07:52:58;;;;;;;13.23;1.67;;;2.40;99.90;;;;;;5029174;28;20056;-69
2024/01/14 07:55:23;;;;;;;9.50;1.83;;;2.40;99.90;;;;;;5040287;28;20041;-70
2024/01/14 07:57:49;;;;;;;7.25;1.50;;;2.30;99.90;;;;;;5030427;28;20044;-68
2024/01/14 08:00:15;;;;;;;9.57;1.52;;;2.30;99.90;;;;;;5034956;28;20128;-70
2024/01/14 08:02:41;;;;;;;11.50;1.42;;;2.30;99.90;;;;;;5036941;28;20042;-70
2024/01/14 08:05:06;;;;;;;9.80;1.65;;;2.20;99.90;;;;;;5038452;28;20041;-68
2024/01/14 08:07:32;;;;;;;15.30;1.83;;;2.30;99.90;;;;;;5016093;28;20116;-69
2024/01/14 08:09:59;;;;;;;10.57;1.85;;;2.20;99.90;;;;;;5037849;28;20048;-68
2024/01/14 08:12:24;;;;;;;7.90;1.33;;;2.30;99.90;;;;;;5037973;28;20041;-71
2024/01/14 08:14:50;;;;;;;7.85;1.95;;;2.30;99.90;;;;;;5038561;28;20048;-71
2024/01/14 08:17:16;;;;;;;10.45;1.20;;;2.20;99.90;;;;;;5039553;28;20029;-71
2024/01/14 08:19:42;;;;;;;8.18;1.40;;;2.20;99.90;;;;;;5046754;28;20655;-71
2024/01/14 08:22:08;;;;;;;9.45;2.03;;;2.20;99.90;;;;;;5048517;28;20087;-69
2024/01/14 08:24:33;;;;;;;11.07;1.25;;;2.30;99.90;;;;;;5019717;28;20029;-70
2024/01/14 08:26:59;;;;;;;7.25;1.42;;;2.30;99.90;;;;;;5035279;28;20462;-71
2024/01/14 08:29:25;;;;;;;8.55;2.22;;;2.30;99.90;;;;;;5035139;28;20381;-71
2024/01/14 08:31:50;;;;;;;7.65;1.35;;;2.40;99.90;;;;;;5033724;28;20061;-71
2024/01/14 08:34:16;;;;;;;6.63;1.20;;;2.40;99.90;;;;;;5041984;28;20044;-70
2024/01/14 08:36:42;;;;;;;9.52;1.30;;;2.50;99.90;;;;;;5031325;28;20037;-69
2024/01/14 08:39:07;;;;;;;7.22;1.30;;;2.60;99.90;;;;;;5037200;28;20037;-69
2024/01/14 08:41:33;;;;;;;15.95;4.15;;;2.60;99.90;;;;;;5030073;28;20041;-68
2024/01/14 08:43:59;;;;;;;16.13;3.53;;;2.70;99.90;;;;;;5037350;28;20051;-68
2024/01/14 08:46:26;;;;;;;11.95;3.38;;;2.70;99.90;;;;;;5031637;28;20038;-68
2024/01/14 08:48:52;;;;;;;10.23;2.35;;;2.70;99.90;;;;;;5040558;28;20110;-69
2024/01/14 08:51:18;;;;;;;8.38;2.28;;;2.70;99.90;;;;;;5022117;28;20037;-68
2024/01/14 08:53:43;;;;;;;7.95;2.05;;;2.80;99.90;;;;;;5032698;28;20093;-71
2024/01/14 08:56:09;;;;;;;5.70;1.60;;;2.80;99.90;;;;;;5048787;28;20048;-68
2024/01/14 08:58:34;;;;;;;6.13;1.45;;;2.90;99.90;;;;;;5044411;28;20074;-70
2024/01/14 09:01:00;;;;;;;6.22;2.05;;;2.90;99.90;;;;;;5035799;28;20131;-70
2024/01/14 09:03:26;;;;;;;9.52;2.00;;;2.90;99.90;;;;;;5038226;28;20041;-71
2024/01/14 09:05:51;;;;;;;9.93;1.60;;;2.90;99.90;;;;;;5015831;28;20041;-70
2024/01/14 09:08:17;;;;;;;6.30;1.52;;;2.90;99.90;;;;;;5027434;28;20041;-71
2024/01/14 09:10:43;;;;;;;6.10;1.58;;;2.90;99.90;;;;;;5030391;28;20473;-70
2024/01/14 09:13:09;;;;;;;9.10;2.33;;;3.00;99.90;;;;;;5034285;28;20060;-69
2024/01/14 09:15:34;;;;;;;10.65;1.40;;;2.90;99.90;;;;;;5030752;28;20037;-69
2024/01/14 09:18:00;;;;;;;5.85;1.35;;;2.90;99.90;;;;;;5037556;28;20362;-71
2024/01/14 09:20:26;;;;;;;6.47;1.40;;;3.00;99.90;;;;;;5033145;28;20072;-69
2024/01/14 09:22:52;;;;;;;9.48;1.45;;;3.00;99.90;;;;;;5045996;28;20045;-67
2024/01/14 09:25:17;;;;;;;11.13;1.40;;;3.00;99.90;;;;;;5028643;28;20041;-70
2024/01/14 09:27:43;;;;;;;6.68;1.20;;;3.10;99.90;;;;;;5015273;28;20038;-69
2024/01/14 09:30:12;;;;;;;9.30;2.92;;;3.20;99.90;;;;;;5048149;28;20377;-71
2024/01/14 09:32:38;;;;;;;7.03;1.50;;;3.30;99.90;;;;;;5042075;28;20052;-70
2024/01/14 09:35:04;;;;;;;7.57;1.65;;;3.30;99.90;;;;;;5040359;28;20347;-70
2024/01/14 09:37:29;;;;;;;5.57;1.23;;;3.40;99.90;;;;;;5030619;28;20065;-69
2024/01/14 09:39:55;;;;;;;8.60;1.88;;;3.30;99.90;;;;;;5032589;28;20056;-69
2024/01/14 09:42:27;;;;;;;4.55;1.27;;;3.40;99.90;;;;;;5041810;28;20129;-70
2024/01/14 09:45:02;;;;;;;4.88;1.60;;;3.40;99.90;;;;;;5029316;28;20544;-70
2024/01/14 09:47:31;;;;;;;4.70;1.25;;;3.40;99.90;;;;;;5042780;28;20032;-70
2024/01/14 09:49:59;;;;;;;6.40;1.20;;;3.40;99.90;;;;;;5035691;28;20037;-68
2024/01/14 09:52:25;;;;;;;10.75;1.50;;;3.40;99.90;;;;;;5041075;28;20057;-68
2024/01/14 09:54:51;;;;;;;5.80;1.40;;;3.40;99.90;;;;;;5032537;28;20055;-70
2024/01/14 09:57:18;;;;;;;5.00;1.20;;;3.30;99.90;;;;;;5042775;28;20477;-70
2024/01/14 09:59:44;;;;;;;9.30;1.75;;;3.40;99.90;;;;;;5038345;28;20044;-69
2024/01/14 10:02:14;;;;;;;4.32;1.13;;;3.40;99.90;;;;;;5031082;28;20604;-70
2024/01/14 10:04:40;;;;;;;5.75;1.55;;;3.40;99.90;;;;;;5040556;28;20048;-71
2024/01/14 10:07:07;;;;;;;4.78;1.23;;;3.40;99.90;;;;;;5033511;28;20083;-70
2024/01/14 10:09:33;;;;;;;6.28;1.27;;;3.40;99.90;;;;;;5036089;28;20077;-67
2024/01/14 10:12:00;;;;;;;8.45;1.75;;;3.40;99.90;;;;;;5039197;28;20043;-70
2024/01/14 10:14:28;;;;;;;6.13;1.40;;;3.40;99.90;;;;;;5041362;28;20461;-70
2024/01/14 10:16:57;;;;;;;8.57;1.38;;;3.60;99.90;;;;;;5035900;28;20041;-69
2024/01/14 10:19:23;;;;;;;7.05;1.50;;;3.70;99.90;;;;;;5045033;28;20073;-69
2024/01/14 10:21:52;;;;;;;6.68;1.10;;;3.90;99.90;;;;;;5031464;28;20084;-70
2024/01/14 10:24:18;;;;;;;4.20;1.30;;;4.00;99.90;;;;;;5031229;28;20426;-71
2024/01/14 10:26:43;;;;;;;7.75;1.48;;;4.10;99.90;;;;;;5034202;28;20037;-71
2024/01/14 10:29:09;;;;;;;10.52;1.60;;;4.10;1.00;;;;;;5021795;28;20174;-69
2024/01/14 10:31:36;;;;;;;7.22;1.20;;;4.20;99.90;;;;;;5015090;28;20421;-69
2024/01/14 10:34:02;;;;;;;6.53;1.38;;;4.20;1.00;;;;;;5034690;28;20573;-69
2024/01/14 10:36:31;;;;;;;5.10;1.42;;;4.20;8.00;;;;;;5032311;28;20118;-68
2024/01/14 10:38:59;;;;;;;6.13;1.02;;;4.20;67.10;;;;;;5030765;28;20061;-70
2024/01/14 10:41:25;;;;;;;9.50;1.67;;;4.40;12.20;;;;;;5014302;28;20819;-69
2024/01/14 10:43:51;;;;;;;6.32;1.45;;;4.40;1.00;;;;;;5031723;28;20381;-70
2024/01/14 10:46:17;;;;;;;2.97;1.05;;;4.50;1.00;;;;;;5045119;28;20083;-73
2024/01/14 10:48:48;;;;;;;7.90;1.75;;;4.40;99.90;;;;;;5014789;28;20153;-73
2024/01/14 10:51:16;;;;;;;3.83;1.00;;;4.50;99.90;;;;;;5030935;28;20060;-68
2024/01/14 10:53:56;;;;;;;3.17;0.88;;;4.50;99.90;;;;;;5030206;28;20045;-69
2024/01/14 10:56:31;;;;;;;7.03;1.00;;;4.50;99.90;;;;;;5031991;28;20056;-67
2024/01/14 10:59:01;;;;;;;3.53;0.80;;;4.40;1.00;;;;;;5019207;28;20723;-68
2024/01/14 11:01:31;;;;;;;6.70;1.00;;;4.40;99.90;;;;;;5036678;28;20488;-68
2024/01/14 11:03:59;;;;;;;5.47;1.02;;;4.40;99.90;;;;;;5034097;28;20084;-69
2024/01/14 11:06:26;;;;;;;3.35;1.20;;;4.40;1.00;;;;;;5039231;28;20041;-70
2024/01/14 11:08:52;;;;;;;4.70;1.10;;;4.50;99.90;;;;;;5044454;28;20052;-71
2024/01/14 11:11:24;;;;;;;8.73;1.00;;;4.50;99.90;;;;;;5022080;28;20037;-68
2024/01/14 11:14:01;;;;;;;5.90;0.90;;;4.50;99.90;;;;;;5033002;28;20038;-70
2024/01/14 11:16:44;;;;;;;7.60;1.05;;;4.50;99.90;;;;;;5031461;28;20037;-69
2024/01/14 11:19:18;;;;;;;4.00;1.00;;;4.50;99.90;;;;;;5033275;28;20033;-70
2024/01/14 11:22:15;;;;;;;4.85;1.15;;;4.40;99.90;;;;;;5042612;28;20181;-70
2024/01/14 11:24:41;;;;;;;3.67;1.00;;;4.40;99.90;;;;;;5037399;28;20120;-69
2024/01/14 11:27:07;;;;;;;5.40;0.88;;;4.40;99.90;;;;;;5032784;28;20152;-70
2024/01/14 11:29:36;;;;;;;7.18;1.30;;;4.40;99.90;;;;;;5020357;28;20069;-68
2024/01/14 11:32:20;;;;;;;5.80;1.10;;;4.50;99.90;;;;;;5035075;28;20044;-68
2024/01/14 11:34:51;;;;;;;3.17;1.05;;;4.50;99.90;;;;;;5018661;28;20041;-70
2024/01/14 11:37:29;;;;;;;4.53;1.10;;;4.60;99.90;;;;;;5039243;28;20548;-69
2024/01/14 11:40:07;;;;;;;3.83;2.10;;;4.70;99.90;;;;;;5038049;28;20856;-69
2024/01/14 11:42:33;;;;;;;9.40;1.40;;;4.70;99.90;;;;;;5035282;28;20037;-69
2024/01/14 11:45:35;;;;;;;9.93;1.45;;;4.70;99.90;;;;;;5011702;28;20037;-69
2024/01/14 11:48:06;;;;;;;4.90;1.08;;;4.70;99.90;;;;;;5014903;28;20045;-70
2024/01/14 11:50:33;;;;;;;4.07;1.10;;;4.60;99.90;;;;;;5030129;28;20149;-70
2024/01/14 11:53:01;;;;;;;3.80;1.10;;;4.60;99.90;;;;;;5040079;28;20053;-71
2024/01/14 11:55:30;;;;;;;4.28;1.20;;;4.60;99.90;;;;;;5039957;28;20746;-68
2024/01/14 11:58:06;;;;;;;5.05;1.02;;;4.50;99.90;;;;;;5017007;28;20110;-68
2024/01/14 12:00:34;;;;;;;7.10;1.73;;;4.50;99.90;;;;;;5048091;28;20378;-68
2024/01/14 12:03:07;;;;;;;3.00;1.30;;;4.60;99.90;;;;;;5032374;28;20038;-68
2024/01/14 12:05:33;;;;;;;2.25;1.15;;;4.50;99.90;;;;;;5036481;28;20521;-67
2024/01/14 12:08:00;;;;;;;4.43;1.30;;;4.60;99.90;;;;;;5032291;28;20116;-68
2024/01/14 12:10:28;;;;;;;6.50;1.35;;;4.70;99.90;;;;;;5040675;28;20604;-69
2024/01/14 12:12:55;;;;;;;4.72;1.50;;;4.70;99.90;;;;;;5012636;28;20116;-70
2024/01/14 12:15:21;;;;;;;5.70;1.33;;;4.70;99.90;;;;;;5035782;28;20657;-69
2024/01/14 12:17:54;;;;;;;4.32;1.13;;;4.70;99.90;;;;;;5043933;28;20045;-69
2024/01/14 12:20:24;;;;;;;8.38;1.40;;;4.70;99.90;;;;;;5040006;28;20045;-68
2024/01/14 12:23:11;;;;;;;8.95;1.42;;;4.70;99.90;;;;;;5032240;28;20045;-69
2024/01/14 12:25:39;;;;;;;4.50;0.82;;;4.70;99.90;;;;;;5040642;28;20048;-71
2024/01/14 12:28:05;;;;;;;2.95;1.10;;;4.70;99.90;;;;;;5022664;28;20400;-68
2024/01/14 12:30:37;;;;;;;9.02;1.45;;;4.70;99.90;;;;;;5044259;28;20049;-70
2024/01/14 12:33:08;;;;;;;8.48;1.27;;;4.70;99.90;;;;;;5044176;28;20138;-69
2024/01/14 12:35:37;;;;;;;2.75;1.00;;;4.70;99.90;;;;;;5047419;28;20124;-68
2024/01/14 12:38:06;;;;;;;2.70;0.88;;;4.70;99.90;;;;;;5026550;28;20068;-66
2024/01/14 12:40:32;;;;;;;4.68;1.10;;;4.70;99.90;;;;;;5029188;28;20390;-71
2024/01/14 12:42:58;;;;;;;6.53;1.38;;;4.60;99.90;;;;;;5013180;28;20049;-70
2024/01/14 12:45:24;;;;;;;6.70;2.60;;;4.50;99.90;;;;;;5036209;28;20087;-69
2024/01/14 12:48:01;;;;;;;6.70;3.90;;;4.50;99.90;;;;;;5027211;28;20048;-68
2024/01/14 12:50:29;;;;;;;2.97;1.52;;;4.50;99.90;;;;;;5018008;28;20094;-68